• Join FlightAware (Why Join?)
  • Login
  • US Flag 
02:02PM EST


 

Airport Tracker/Info


-or-


 

Live Flight TrackerFlight Track Log ✈ SWA22 ✈ 29-Apr-2013 ✈ KDAL - KSAT

Flight Track Log - Related Links

Times and Time Zones

All times are in EDT time to prevent confusion due to time zone crossing. See the SWA22 flight status page for this flight to view local times or setup timezone preferences in your user account.

Time Position Orientation Groundspeed Altitude Reporting Facility
EDT Latitude Longitude Course Direction KTS MPH feet Rate Location/Type
02:01PM 32.8333 -96.8333 140° Southeast 175 201 1,600  Level Dallas / Fort Worth TRACON
02:01PM 32.8167 -96.8167 140° Southeast 172 198 2,500 2,280 Climbing Dallas / Fort Worth TRACON
02:02PM 32.7833 -96.7500 121° Southeast 235 270 5,100 1,860 Climbing Dallas / Fort Worth TRACON
02:03PM 32.7333 -96.7167 151° Southeast 247 284 6,300 1,860 Climbing Dallas / Fort Worth TRACON
02:05PM 32.5897 -96.8167 210° Southwest 292 336 10,700 2,520 Climbing Fort Worth Center
02:06PM 32.5128 -96.8764 213° Southwest 324 373 13,900 2,700 Climbing Fort Worth Center
02:07PM 32.4358 -96.9383 214° Southwest 366 421 16,200 2,580 Climbing Fort Worth Center
02:08PM 32.3275 -96.9806 198° South 373 429 19,100 2,700 Climbing Fort Worth Center
02:09PM 32.2169 -96.9958 187° South 386 444 21,700 2,520 Climbing Fort Worth Center
02:10PM 32.1083 -97.0111 187° South 393 452 24,200 2,340 Climbing Fort Worth Center
02:11PM 31.9956 -97.0239 185° South 409 471 26,400 2,100 Climbing Fort Worth Center
02:12PM 31.8831 -97.0414 188° South 409 471 28,500 1,680 Climbing Fort Worth Center
02:13PM 31.7642 -97.0536 185° South 417 480 29,900 720 Climbing Houston Center
02:14PM 31.6575 -97.0692 187° South 423 487 30,000  Climbing Fort Worth Center
02:15PM 31.5244 -97.0842 185° South 427 491 30,000  Level Houston Center
02:16PM 31.4142 -97.1297 199° South 418 481 30,000  Level Houston Center
02:17PM 31.3011 -97.1728 198° South 420 483 30,000  Level Houston Center
02:18PM 31.1900 -97.2167 199° South 418 481 30,000  Level Houston Center
02:19PM 31.0606 -97.2675 199° South 416 479 30,000  Level Houston Center
02:20PM 30.9628 -97.3036 198° South 423 487 30,000  Level Houston Center
02:21PM 30.8397 -97.3525 199° South 428 493 30,000 -120 Level Houston Center
02:22PM 30.7281 -97.3947 198° South 422 486 29,800 -720 Descending Houston Center
02:23PM 30.5944 -97.4472 199° South 429 494 28,600 -1,080 Descending Houston Center
02:24PM 30.4800 -97.4903 198° South 429 494 27,600 -1,500 Descending Houston Center
02:25PM 30.3692 -97.5344 199° South 419 482 25,500 -1,920 Descending Houston Center
02:27PM 30.2875 -97.6172 221° Southwest 390 449 23,700 -1,980 Descending Houston Center
02:28PM 30.2211 -97.7067 229° Southwest 365 420 21,500 -2,100 Descending Houston Center
02:28PM 30.1839 -97.7456 222° Southwest 350 403 20,400 -2,040 Descending Houston Center
02:29PM 30.1494 -97.7825 223° Southwest 349 402 19,400 -2,460 Descending Houston Center
02:29PM 30.1169 -97.8147 221° Southwest 343 395 18,400 -2,460 Descending Houston Center
02:30PM 30.0628 -97.8575 214° Southwest 336 387 16,900 -2,220 Descending Houston Center
02:30PM 30.0364 -97.8731 207° Southwest 333 383 16,200 -2,040 Descending Houston Center
02:31PM 29.9822 -97.9086 210° Southwest 330 380 14,800 -1,920 Descending Houston Center
02:31PM 29.9622 -97.9308 224° Southwest 322 371 14,300 -2,040 Descending Houston Center
02:32PM 29.9286 -97.9958 239° Southwest 308 354 12,700 -2,280 Descending Houston Center
02:32PM 29.9128 -98.0311 243° Southwest 314 361 11,800 -1,980 Descending Houston Center
02:33PM 29.8861 -98.0850 240° Southwest 316 364 10,700 -1,500 Descending Houston Center
02:33PM 29.8750 -98.1203 250° West 309 356 10,300 -1,380 Descending Houston Center
02:34PM 29.8517 -98.1781 245° Southwest 291 335 9,300 -1,500 Descending Houston Center
02:34PM 29.8450 -98.2033 253° West 281 323 8,800 -1,860 Descending Houston Center
02:35PM 29.8044 -98.2433 221° Southwest 279 321 7,400 -1,920 Descending Houston Center
02:35PM 29.7878 -98.2633 226° Southwest 275 316 6,900 -960 Descending Houston Center
02:36PM 29.7475 -98.3153 228° Southwest 282 325 6,400 -600 Descending Houston Center
02:36PM 29.7372 -98.3322 235° Southwest 281 323 6,300 -420 Descending Houston Center
02:37PM 29.6994 -98.3803 228° Southwest 269 310 6,000 -300 Descending Houston Center
02:37PM 29.6864 -98.3936 222° Southwest 267 307 6,000 -300 Level Houston Center
02:38PM 29.6583 -98.4494 240° Southwest 248 285 5,700 -780 Descending Houston Center
02:39PM 29.6942 -98.5250 299° West 232 267 4,500 -1,140 Descending Houston Center
02:40PM 29.7047 -98.5911 280° West 232 267 3,400 -840 Descending Houston Center
02:41PM 29.6703 -98.6344 228° Southwest 189 217 2,900 -300 Descending Houston Center
02:42PM 29.6303 -98.5992 143° Southeast 176 203 2,800 -180 Descending Houston Center
02:43PM 29.6011 -98.5625 132° Southeast 176 203 2,600 -540 Descending Houston Center
02:44PM 29.5706 -98.5203 130° Southeast 146 168 1,700 -780 Descending Houston Center
02:45PM 29.5478 -98.4894 130° Southeast 131 151 1,000 -720 Descending Houston Center
02:47PM 29.5333 -98.4667 133° Southeast  Level FlightAware Approximate
02:54PM 29.5340 -98.4691 133° Southeast  Level Estimated
02:55PM 29.5333 -98.4667 133° Southeast  Level FlightAware Approximate